createdAt,value
2018-09-11T00:00:43.746Z,16.60
2018-09-11T00:03:13.034Z,16.60
2018-09-11T00:05:42.295Z,16.60
2018-09-11T00:08:11.615Z,16.50
2018-09-11T00:10:40.870Z,16.50
2018-09-11T00:13:10.213Z,16.50
2018-09-11T00:15:39.469Z,16.40
2018-09-11T00:18:08.769Z,16.40
2018-09-11T00:20:38.022Z,16.30
2018-09-11T00:23:07.397Z,16.20
2018-09-11T00:25:36.657Z,16.10
2018-09-11T00:28:06.037Z,16.10
2018-09-11T00:30:35.361Z,16.10
2018-09-11T00:33:04.709Z,16.00
2018-09-11T00:35:33.990Z,16.00
2018-09-11T00:38:03.312Z,15.90
2018-09-11T00:40:32.581Z,15.90
2018-09-11T00:43:01.886Z,15.90
2018-09-11T00:45:31.188Z,15.90
2018-09-11T00:48:00.468Z,15.90
2018-09-11T00:50:29.750Z,15.90
2018-09-11T00:52:59.043Z,15.90
2018-09-11T00:55:28.312Z,15.90
2018-09-11T00:57:57.584Z,15.90
2018-09-11T01:00:26.871Z,15.80
2018-09-11T01:02:56.146Z,15.80
2018-09-11T01:05:25.428Z,15.70
2018-09-11T01:07:54.717Z,15.70
2018-09-11T01:10:24.014Z,15.70
2018-09-11T01:12:53.359Z,15.70
2018-09-11T01:15:22.636Z,15.70
2018-09-11T01:17:51.913Z,15.60
2018-09-11T01:20:21.141Z,15.60
2018-09-11T01:22:50.451Z,15.50
2018-09-11T01:25:19.727Z,15.50
2018-09-11T01:27:49.029Z,15.40
2018-09-11T01:30:20.572Z,15.40
2018-09-11T01:32:50.702Z,15.40
2018-09-11T01:35:20.426Z,15.30
2018-09-11T01:37:49.718Z,15.30
2018-09-11T01:40:19.029Z,15.30
2018-09-11T01:42:48.323Z,15.30
2018-09-11T01:45:17.661Z,15.20
2018-09-11T01:47:47.185Z,15.10
2018-09-11T01:50:16.581Z,15.10
2018-09-11T01:52:45.861Z,15.10
2018-09-11T01:55:15.169Z,15.00
2018-09-11T01:57:44.419Z,15.00
2018-09-11T02:00:17.594Z,14.90
2018-09-11T02:02:47.494Z,14.90
2018-09-11T02:05:17.114Z,14.90
2018-09-11T02:07:46.493Z,14.90
2018-09-11T02:10:15.787Z,14.80
2018-09-11T02:12:45.040Z,14.80
2018-09-11T02:15:14.357Z,14.70
2018-09-11T02:17:43.618Z,14.70
2018-09-11T02:20:12.957Z,14.60
2018-09-11T02:22:42.216Z,14.60
2018-09-11T02:25:11.527Z,14.60
2018-09-11T02:27:40.787Z,14.60
2018-09-11T02:30:10.082Z,14.50
2018-09-11T02:32:39.341Z,14.50
2018-09-11T02:35:08.672Z,14.40
2018-09-11T02:37:37.918Z,14.40
2018-09-11T02:40:07.199Z,14.40
2018-09-11T02:42:36.413Z,14.30
2018-09-11T02:45:05.759Z,14.30
2018-09-11T02:47:35.015Z,14.30
2018-09-11T02:50:04.465Z,14.30
2018-09-11T02:52:33.685Z,14.30
2018-09-11T02:55:02.958Z,14.30
2018-09-11T02:57:32.199Z,14.20
2018-09-11T03:00:01.429Z,14.20
2018-09-11T03:02:30.660Z,14.20
2018-09-11T03:04:59.867Z,14.20
2018-09-11T03:07:29.078Z,14.20
2018-09-11T03:09:58.281Z,14.20
2018-09-11T03:12:27.510Z,14.10
2018-09-11T03:14:56.750Z,14.10
2018-09-11T03:17:26.032Z,14.00
2018-09-11T03:19:55.266Z,14.00
2018-09-11T03:22:24.593Z,14.00
2018-09-11T03:24:53.826Z,14.00
2018-09-11T03:27:23.093Z,14.00
2018-09-11T03:29:52.422Z,13.90
2018-09-11T03:32:21.670Z,13.90
2018-09-11T03:34:51.140Z,13.90
2018-09-11T03:37:20.527Z,13.80
2018-09-11T03:39:49.841Z,13.80
2018-09-11T03:42:19.149Z,13.80
2018-09-11T03:44:48.491Z,13.80
2018-09-11T03:47:17.830Z,13.80
2018-09-11T03:49:47.086Z,13.80
2018-09-11T03:52:16.382Z,13.70
2018-09-11T03:54:45.641Z,12.30
2018-09-11T03:57:14.942Z,13.70
2018-09-11T03:59:45.183Z,13.70
2018-09-11T04:02:14.495Z,13.70
2018-09-11T04:04:43.775Z,13.60
2018-09-11T04:07:13.046Z,13.60
2018-09-11T04:09:42.275Z,13.50
2018-09-11T04:12:11.484Z,13.50
2018-09-11T04:14:40.722Z,13.40
2018-09-11T04:17:09.986Z,13.40
2018-09-11T04:19:39.257Z,13.40
2018-09-11T04:22:08.505Z,13.40
2018-09-11T04:24:37.724Z,13.40
2018-09-11T04:27:07.094Z,13.40
2018-09-11T04:29:36.397Z,13.40
2018-09-11T04:32:05.650Z,13.40
2018-09-11T04:34:34.852Z,13.30
2018-09-11T04:37:04.086Z,13.30
2018-09-11T04:39:33.355Z,13.30
2018-09-11T04:42:02.565Z,13.30
2018-09-11T04:44:31.880Z,13.30
2018-09-11T04:47:01.140Z,13.30
2018-09-11T04:49:30.406Z,13.30
2018-09-11T04:51:59.654Z,13.20
2018-09-11T04:54:28.926Z,13.20
2018-09-11T04:56:58.198Z,13.20
2018-09-11T04:59:27.455Z,11.80
2018-09-11T05:01:56.925Z,13.30
2018-09-11T05:04:26.025Z,13.30
2018-09-11T05:06:55.373Z,13.30
2018-09-11T05:09:24.713Z,13.40
2018-09-11T05:11:54.009Z,13.30
2018-09-11T05:14:23.262Z,13.40
2018-09-11T05:16:52.550Z,13.40
2018-09-11T05:19:21.933Z,13.50
2018-09-11T05:21:51.190Z,13.50
2018-09-11T05:24:20.469Z,13.50
2018-09-11T05:26:49.693Z,13.50
2018-09-11T05:29:18.995Z,13.60
2018-09-11T05:31:48.262Z,13.60
2018-09-11T05:34:17.606Z,13.60
2018-09-11T05:36:46.992Z,13.60
2018-09-11T05:39:16.270Z,13.60
2018-09-11T05:41:45.529Z,13.70
2018-09-11T05:44:14.865Z,13.80
2018-09-11T05:46:44.183Z,13.90
2018-09-11T05:49:13.471Z,14.00
2018-09-11T05:51:42.706Z,14.10
2018-09-11T05:54:12.039Z,14.10
2018-09-11T05:56:41.390Z,14.20
2018-09-11T05:59:10.692Z,14.30
2018-09-11T06:01:40.060Z,14.50
2018-09-11T06:04:09.431Z,14.60
2018-09-11T06:06:38.744Z,14.70
2018-09-11T06:09:11.535Z,14.80
2018-09-11T06:11:40.839Z,15.00
2018-09-11T06:14:10.546Z,15.10
2018-09-11T06:16:39.805Z,15.20
2018-09-11T06:19:10.124Z,15.40
2018-09-11T06:21:39.618Z,15.60
2018-09-11T06:24:08.910Z,15.70
2018-09-11T06:26:38.227Z,15.80
2018-09-11T06:29:07.633Z,16.00
2018-09-11T06:31:36.834Z,16.10
2018-09-11T06:34:06.215Z,16.30
2018-09-11T06:39:05.590Z,16.60
2018-09-11T06:41:34.907Z,16.80
2018-09-11T06:44:04.182Z,17.00
2018-09-11T06:46:33.902Z,17.20
2018-09-11T06:49:03.627Z,17.40
2018-09-11T06:51:33.058Z,17.60
2018-09-11T06:54:02.459Z,17.80
2018-09-11T06:56:31.949Z,18.00
2018-09-11T06:59:01.348Z,18.20
2018-09-11T07:01:30.571Z,18.30
2018-09-11T07:03:59.817Z,18.50
2018-09-11T07:06:29.136Z,18.70
2018-09-11T07:08:58.387Z,18.90
2018-09-11T07:11:27.682Z,19.20
2018-09-11T07:13:56.888Z,19.40
2018-09-11T07:16:26.182Z,19.60
2018-09-11T07:18:55.467Z,19.90
2018-09-11T07:21:24.787Z,20.20
2018-09-11T07:23:54.079Z,20.40
2018-09-11T07:26:23.746Z,20.60
2018-09-11T07:28:53.363Z,20.80
2018-09-11T07:31:22.727Z,21.00
2018-09-11T07:33:52.006Z,21.10
2018-09-11T07:36:21.382Z,21.30
2018-09-11T07:38:50.721Z,21.50
2018-09-11T07:41:20.006Z,21.60
2018-09-11T07:43:49.330Z,21.60
2018-09-11T07:46:18.627Z,21.60
2018-09-11T07:48:47.928Z,21.80
2018-09-11T07:51:17.290Z,21.90
2018-09-11T07:53:46.663Z,22.00
2018-09-11T07:56:16.067Z,22.30
2018-09-11T07:58:45.438Z,22.40
2018-09-11T08:01:14.749Z,22.30
2018-09-11T08:03:44.067Z,22.40
2018-09-11T08:06:13.403Z,22.50
2018-09-11T08:08:42.700Z,22.50
2018-09-11T08:11:12.080Z,22.50
2018-09-11T08:13:41.462Z,22.50
2018-09-11T08:16:10.828Z,22.60
2018-09-11T08:18:40.044Z,22.60
2018-09-11T08:21:09.389Z,22.70
2018-09-11T08:23:38.690Z,22.80
2018-09-11T08:26:08.277Z,22.90
2018-09-11T08:28:37.587Z,23.10
2018-09-11T08:31:06.974Z,23.20
2018-09-11T08:33:36.256Z,23.10
2018-09-11T08:36:05.589Z,23.40
2018-09-11T08:38:34.924Z,23.50
2018-09-11T08:41:04.268Z,23.60
2018-09-11T08:43:33.477Z,23.50
2018-09-11T08:46:02.794Z,23.50
2018-09-11T08:48:31.992Z,23.60
2018-09-11T08:51:01.248Z,23.60
2018-09-11T08:53:30.569Z,23.70
2018-09-11T08:55:59.829Z,23.80
2018-09-11T08:58:29.129Z,23.80
2018-09-11T09:00:58.354Z,23.70
2018-09-11T09:03:27.649Z,23.90
2018-09-11T09:05:57.182Z,24.00
2018-09-11T09:08:26.568Z,23.90
2018-09-11T09:10:56.067Z,24.00
2018-09-11T09:13:25.462Z,24.10
2018-09-11T09:15:54.739Z,24.10
2018-09-11T09:18:24.044Z,24.00
2018-09-11T09:20:53.344Z,23.90
2018-09-11T09:23:22.626Z,24.00
2018-09-11T09:25:51.949Z,23.80
2018-09-11T09:28:21.170Z,23.70
2018-09-11T09:30:50.397Z,23.60
2018-09-11T09:33:19.658Z,23.50
2018-09-11T09:35:48.902Z,23.50
2018-09-11T09:38:18.218Z,23.40
2018-09-11T09:40:47.533Z,23.40
2018-09-11T09:43:16.806Z,23.40
2018-09-11T09:45:46.075Z,23.60
2018-09-11T09:48:15.365Z,23.80
2018-09-11T09:50:44.701Z,23.80
2018-09-11T09:53:13.976Z,24.00
2018-09-11T09:55:43.242Z,24.10
2018-09-11T09:58:12.562Z,24.20
2018-09-11T10:00:46.994Z,24.10
2018-09-11T10:03:16.328Z,24.10
2018-09-11T10:05:45.722Z,24.30
2018-09-11T10:08:15.066Z,24.40
2018-09-11T10:10:45.283Z,24.60
2018-09-11T10:13:14.562Z,24.70
2018-09-11T10:15:44.230Z,24.90
2018-09-11T10:18:13.562Z,25.00
2018-09-11T10:20:43.035Z,25.00
2018-09-11T10:23:12.342Z,24.90
2018-09-11T10:25:41.635Z,25.00
2018-09-11T10:28:11.008Z,25.10
2018-09-11T10:30:40.371Z,25.20
2018-09-11T10:33:09.666Z,25.20
2018-09-11T10:35:39.158Z,25.10
2018-09-11T10:38:08.580Z,25.20
2018-09-11T10:40:37.838Z,25.30
2018-09-11T10:43:07.260Z,25.30
2018-09-11T10:45:36.548Z,25.40
2018-09-11T10:48:05.920Z,25.40
2018-09-11T10:50:35.244Z,25.50
2018-09-11T10:53:04.593Z,25.60
2018-09-11T10:55:33.871Z,25.70
2018-09-11T10:58:03.230Z,25.80
2018-09-11T11:00:32.622Z,25.90
2018-09-11T11:03:01.899Z,25.90
2018-09-11T11:05:31.250Z,25.90
2018-09-11T11:08:00.565Z,26.00
2018-09-11T11:10:30.061Z,26.00
2018-09-11T11:12:59.302Z,25.90
2018-09-11T11:15:28.565Z,25.90
2018-09-11T11:17:57.861Z,25.90
2018-09-11T11:20:27.123Z,26.10
2018-09-11T11:22:56.386Z,26.10
2018-09-11T11:25:25.664Z,26.20
2018-09-11T11:27:55.011Z,26.30
2018-09-11T11:30:24.373Z,26.40
2018-09-11T11:32:53.808Z,26.40
2018-09-11T11:35:23.117Z,26.50
2018-09-11T11:37:52.451Z,26.70
2018-09-11T11:40:21.879Z,26.70
2018-09-11T11:42:51.187Z,26.70
2018-09-11T11:45:23.938Z,26.70
2018-09-11T11:47:53.613Z,26.80
2018-09-11T11:50:23.875Z,26.80
2018-09-11T11:52:53.201Z,27.00
2018-09-11T11:55:22.626Z,27.00
2018-09-11T11:57:51.910Z,27.10
2018-09-11T12:00:21.210Z,27.10
2018-09-11T12:02:52.030Z,27.20
2018-09-11T12:05:21.479Z,27.10
2018-09-11T12:07:50.855Z,27.10
2018-09-11T12:10:20.146Z,27.10
2018-09-11T12:12:49.466Z,26.90
2018-09-11T12:15:18.902Z,27.00
2018-09-11T12:17:48.430Z,27.00
2018-09-11T12:20:17.751Z,27.00
2018-09-11T12:22:47.043Z,27.00
2018-09-11T12:25:16.454Z,26.90
2018-09-11T12:27:45.783Z,26.90
2018-09-11T12:30:15.092Z,27.00
2018-09-11T12:32:44.386Z,27.00
2018-09-11T12:35:13.778Z,27.10
2018-09-11T12:37:43.012Z,27.00
2018-09-11T12:40:12.303Z,26.90
2018-09-11T12:42:41.624Z,26.90
2018-09-11T12:45:11.020Z,26.90
2018-09-11T12:47:40.876Z,26.90
2018-09-11T12:50:09.528Z,27.00
2018-09-11T12:52:38.810Z,27.10
2018-09-11T12:55:08.064Z,27.10
2018-09-11T12:57:37.406Z,27.10
2018-09-11T13:00:08.365Z,27.10
2018-09-11T13:02:37.621Z,27.00
2018-09-11T13:05:06.917Z,27.00
2018-09-11T13:07:36.313Z,27.00
2018-09-11T13:10:05.922Z,27.00
2018-09-11T13:12:35.209Z,27.00
2018-09-11T13:15:04.633Z,27.10
2018-09-11T13:17:33.788Z,27.10
2018-09-11T13:20:03.039Z,27.20
2018-09-11T13:22:32.301Z,27.20
2018-09-11T13:25:01.522Z,27.30
2018-09-11T13:27:30.821Z,27.40
2018-09-11T13:30:00.611Z,27.40
2018-09-11T13:32:29.887Z,27.40
2018-09-11T13:34:59.133Z,27.50
2018-09-11T13:37:28.478Z,27.60
2018-09-11T13:39:57.730Z,27.70
2018-09-11T13:42:27.110Z,27.70
2018-09-11T13:44:56.349Z,27.70
2018-09-11T13:47:25.766Z,27.80
2018-09-11T13:49:54.910Z,27.90
2018-09-11T13:52:24.203Z,27.80
2018-09-11T13:54:53.496Z,27.90
2018-09-11T13:57:22.821Z,27.90
2018-09-11T13:59:52.064Z,27.90
2018-09-11T14:02:21.346Z,27.90
2018-09-11T14:04:50.659Z,27.90
2018-09-11T14:07:20.081Z,28.00
2018-09-11T14:09:49.494Z,28.00
2018-09-11T14:12:18.845Z,27.90
2018-09-11T14:14:48.189Z,27.90
2018-09-11T14:17:17.462Z,28.00
2018-09-11T14:19:46.754Z,28.00
2018-09-11T14:22:22.340Z,28.00
2018-09-11T14:24:51.639Z,28.10
2018-09-11T14:27:20.951Z,27.90
2018-09-11T14:29:50.289Z,27.90
2018-09-11T14:32:19.559Z,28.00
2018-09-11T14:34:48.762Z,28.00
2018-09-11T14:37:18.051Z,28.00
2018-09-11T14:39:47.266Z,28.10
2018-09-11T14:42:16.582Z,27.90
2018-09-11T14:44:45.959Z,28.00
2018-09-11T14:47:15.230Z,28.00
2018-09-11T14:49:44.630Z,28.10
2018-09-11T14:52:13.919Z,28.10
2018-09-11T14:54:43.235Z,28.10
2018-09-11T14:57:12.892Z,28.10
2018-09-11T14:59:42.222Z,28.10
2018-09-11T15:02:11.625Z,28.10
2018-09-11T15:04:41.005Z,28.10
2018-09-11T15:07:10.281Z,28.10
2018-09-11T15:09:39.623Z,28.00
2018-09-11T15:12:09.002Z,28.00
2018-09-11T15:14:38.257Z,27.90
2018-09-11T15:17:07.511Z,27.90
2018-09-11T15:19:36.801Z,27.90
2018-09-11T15:22:06.092Z,27.90
2018-09-11T15:24:35.382Z,27.90
2018-09-11T15:27:04.683Z,27.90
2018-09-11T15:29:34.022Z,27.90
2018-09-11T15:32:03.630Z,27.90
2018-09-11T15:34:32.973Z,27.80
2018-09-11T15:37:02.289Z,27.70
2018-09-11T15:39:31.606Z,27.70
2018-09-11T15:42:00.880Z,27.70
2018-09-11T15:44:30.284Z,27.70
2018-09-11T15:46:59.589Z,27.60
2018-09-11T15:49:29.007Z,27.60
2018-09-11T15:51:58.292Z,27.60
2018-09-11T15:54:27.680Z,27.50
2018-09-11T15:56:56.990Z,27.50
2018-09-11T15:59:26.281Z,27.50
2018-09-11T16:01:55.586Z,27.40
2018-09-11T16:04:24.994Z,27.40
2018-09-11T16:06:54.357Z,27.40
2018-09-11T16:09:23.735Z,27.40
2018-09-11T16:11:53.021Z,27.40
2018-09-11T16:14:22.337Z,27.30
2018-09-11T16:16:51.698Z,27.20
2018-09-11T16:21:50.028Z,27.00
2018-09-11T16:24:19.322Z,27.00
2018-09-11T16:26:48.633Z,26.90
2018-09-11T16:29:17.913Z,26.80
2018-09-11T16:31:47.262Z,26.70
2018-09-11T16:34:16.520Z,26.70
2018-09-11T16:36:45.773Z,26.60
2018-09-11T16:39:15.005Z,26.60
2018-09-11T16:41:44.276Z,26.50
2018-09-11T16:44:13.602Z,26.50
2018-09-11T16:46:42.905Z,26.40
2018-09-11T16:49:12.142Z,26.20
2018-09-11T16:51:41.441Z,26.10
2018-09-11T16:54:10.732Z,26.00
2018-09-11T16:56:40.103Z,25.90
2018-09-11T16:59:09.606Z,25.90
2018-09-11T17:01:38.894Z,25.80
2018-09-11T17:04:08.174Z,25.60
2018-09-11T17:06:37.487Z,25.40
2018-09-11T17:09:09.430Z,25.30
2018-09-11T17:11:38.690Z,25.10
2018-09-11T17:14:07.902Z,25.00
2018-09-11T17:16:37.247Z,24.80
2018-09-11T17:19:06.470Z,24.80
2018-09-11T17:21:35.751Z,24.80
2018-09-11T17:24:05.947Z,24.90
2018-09-11T17:26:35.289Z,24.90
2018-09-11T17:29:04.634Z,24.80
2018-09-11T17:31:33.937Z,24.60
2018-09-11T17:34:03.221Z,24.40
2018-09-11T17:36:33.154Z,24.20
2018-09-11T17:39:09.391Z,24.00
2018-09-11T17:41:39.167Z,23.80
2018-09-11T17:44:08.439Z,23.60
2018-09-11T17:46:37.868Z,23.40
2018-09-11T17:49:07.143Z,23.30
2018-09-11T17:51:36.442Z,23.10
2018-09-11T17:54:05.927Z,22.90
2018-09-11T17:56:35.212Z,22.80
2018-09-11T17:59:04.426Z,22.60
2018-09-11T18:01:34.319Z,22.40
2018-09-11T18:04:03.581Z,22.20
2018-09-11T18:06:32.863Z,22.00
2018-09-11T18:09:02.080Z,21.80
2018-09-11T18:14:00.427Z,21.50
2018-09-11T18:16:29.706Z,21.40
2018-09-11T18:18:58.953Z,21.20
2018-09-11T18:21:28.423Z,21.10
2018-09-11T18:24:02.754Z,21.00
2018-09-11T18:26:32.053Z,20.90
2018-09-11T18:29:01.334Z,20.70
2018-09-11T18:31:30.560Z,20.60
2018-09-11T18:33:59.851Z,20.60
2018-09-11T18:36:29.239Z,20.50
2018-09-11T18:38:58.563Z,20.40
2018-09-11T18:44:05.762Z,20.20
2018-09-11T18:46:34.990Z,20.10
2018-09-11T18:49:04.623Z,20.00
2018-09-11T18:51:33.978Z,19.90
2018-09-11T18:54:03.297Z,19.80
2018-09-11T18:56:32.918Z,19.70
2018-09-11T18:59:02.455Z,19.60
2018-09-11T19:01:31.726Z,19.60
2018-09-11T19:04:01.062Z,19.50
2018-09-11T19:08:59.535Z,19.40
2018-09-11T19:11:29.353Z,19.30
2018-09-11T19:13:58.707Z,19.30
2018-09-11T19:16:29.135Z,19.20
2018-09-11T19:18:58.514Z,19.10
2018-09-11T19:21:28.183Z,19.10
2018-09-11T19:24:01.802Z,19.00
2018-09-11T19:26:31.042Z,18.90
2018-09-11T19:29:00.383Z,18.80
2018-09-11T19:31:29.735Z,18.80
2018-09-11T19:33:59.076Z,18.70
2018-09-11T19:36:28.355Z,18.60
2018-09-11T19:38:57.653Z,18.60
2018-09-11T19:41:26.953Z,18.60
2018-09-11T19:43:56.522Z,18.60
2018-09-11T19:46:25.880Z,18.50
2018-09-11T19:48:55.310Z,18.50
2018-09-11T19:51:24.601Z,18.50
2018-09-11T19:53:53.976Z,18.40
2018-09-11T19:56:23.444Z,18.40
2018-09-11T19:58:55.337Z,18.50
2018-09-11T20:01:24.565Z,18.40
2018-09-11T20:03:54.333Z,18.30
2018-09-11T20:06:23.972Z,18.20
2018-09-11T20:08:53.310Z,18.10
2018-09-11T20:11:22.668Z,18.10
2018-09-11T20:13:51.958Z,18.00
2018-09-11T20:16:21.323Z,17.90
2018-09-11T20:18:53.173Z,17.80
2018-09-11T20:21:22.317Z,17.70
2018-09-11T20:23:51.670Z,17.60
2018-09-11T20:26:20.982Z,17.60
2018-09-11T20:28:50.430Z,17.50
2018-09-11T20:31:19.772Z,17.50
2018-09-11T20:33:49.123Z,17.50
2018-09-11T20:36:18.455Z,17.40
2018-09-11T20:38:47.789Z,17.40
2018-09-11T20:41:17.103Z,17.40
2018-09-11T20:43:46.378Z,17.40
2018-09-11T20:46:15.626Z,17.40
2018-09-11T20:48:45.014Z,17.30
2018-09-11T20:51:14.353Z,17.30
2018-09-11T20:53:43.738Z,17.20
2018-09-11T20:56:12.951Z,17.10
2018-09-11T20:58:42.210Z,17.10
2018-09-11T21:01:11.554Z,17.00
2018-09-11T21:03:40.825Z,16.90
2018-09-11T21:06:10.269Z,16.90
2018-09-11T21:08:39.522Z,16.80
2018-09-11T21:11:08.766Z,16.80
2018-09-11T21:13:38.007Z,16.80
2018-09-11T21:16:07.296Z,16.80
2018-09-11T21:18:36.703Z,16.80
2018-09-11T21:21:06.284Z,16.70
2018-09-11T21:23:35.559Z,16.70
2018-09-11T21:26:04.919Z,16.70
2018-09-11T21:28:34.277Z,16.60
2018-09-11T21:31:03.595Z,16.50
2018-09-11T21:33:32.850Z,16.50
2018-09-11T21:36:02.158Z,16.50
2018-09-11T21:38:31.469Z,16.50
2018-09-11T21:41:00.769Z,16.50
2018-09-11T21:43:30.419Z,16.50
2018-09-11T21:45:59.787Z,16.40
2018-09-11T21:48:29.042Z,16.40
2018-09-11T21:50:58.461Z,16.40
2018-09-11T21:53:27.750Z,16.30
2018-09-11T21:55:57.086Z,16.30
2018-09-11T21:58:26.356Z,16.30
2018-09-11T22:01:00.863Z,16.20
2018-09-11T22:03:30.149Z,16.20
2018-09-11T22:05:59.694Z,16.10
2018-09-11T22:08:28.978Z,16.10
2018-09-11T22:10:58.315Z,16.10
2018-09-11T22:13:27.604Z,16.10
2018-09-11T22:15:57.019Z,16.00
2018-09-11T22:18:26.314Z,16.00
2018-09-11T22:20:55.678Z,16.00
2018-09-11T22:23:25.049Z,15.90
2018-09-11T22:25:54.439Z,15.90
2018-09-11T22:28:23.728Z,15.80
2018-09-11T22:30:53.045Z,15.80
2018-09-11T22:33:22.325Z,15.80
2018-09-11T22:35:51.589Z,15.80
2018-09-11T22:38:20.909Z,15.80
2018-09-11T22:40:50.236Z,15.80
2018-09-11T22:43:19.485Z,15.80
2018-09-11T22:45:48.810Z,15.70
2018-09-11T22:48:18.081Z,15.70
2018-09-11T22:50:47.430Z,15.60
2018-09-11T22:53:16.732Z,15.60
2018-09-11T22:55:46.243Z,15.50
2018-09-11T22:58:15.501Z,15.50
2018-09-11T23:00:44.753Z,15.50
2018-09-11T23:03:14.049Z,15.50
2018-09-11T23:05:43.331Z,15.50
2018-09-11T23:08:12.608Z,15.40
2018-09-11T23:10:41.936Z,15.40
2018-09-11T23:13:11.225Z,15.40
2018-09-11T23:15:40.535Z,15.30
2018-09-11T23:18:09.821Z,15.30
2018-09-11T23:20:39.154Z,15.30
2018-09-11T23:23:08.429Z,15.30
2018-09-11T23:25:37.752Z,15.20
2018-09-11T23:28:07.060Z,15.20
2018-09-11T23:30:36.309Z,15.10
2018-09-11T23:33:05.657Z,15.10
2018-09-11T23:35:34.946Z,15.10
2018-09-11T23:38:04.160Z,15.00
2018-09-11T23:40:33.363Z,15.00
2018-09-11T23:43:02.603Z,15.00
2018-09-11T23:45:31.788Z,15.00
2018-09-11T23:48:01.102Z,15.00
2018-09-11T23:50:30.302Z,15.00
2018-09-11T23:52:59.558Z,15.00
2018-09-11T23:55:28.766Z,14.90
2018-09-11T23:57:58.020Z,14.90
